Time;durP1;ratioP1;P1;durP2;ratioP2;P2;SDS_P1;SDS_P2;PMS_P1;PMS_P2;Temp;Humidity;BMP_temperature;BMP_pressure;BME280_temperature;BME280_humidity;BME280_pressure;Samples;Min_cycle;Max_cycle;Signal;HPM_P1;HPM_P2
2023/08/14 00:01:22;;;;;;;7.63;5.20;;;15.00;99.90;;;;;;5128621;27;20107;-79
2023/08/14 00:03:49;;;;;;;7.50;5.82;;;15.00;99.90;;;;;;5111485;27;20096;-79
2023/08/14 00:06:15;;;;;;;7.43;5.65;;;15.00;99.90;;;;;;5111231;27;20046;-79
2023/08/14 00:08:40;;;;;;;6.47;5.57;;;15.00;99.90;;;;;;5132116;27;20511;-79
2023/08/14 00:11:06;;;;;;;9.02;5.82;;;15.00;99.90;;;;;;5114820;27;20054;-79
2023/08/14 00:13:52;;;;;;;10.32;6.25;;;15.00;99.90;;;;;;5131432;27;20425;-79
2023/08/14 00:16:18;;;;;;;10.10;6.72;;;14.90;99.90;;;;;;5150596;27;20073;-79
2023/08/14 00:18:43;;;;;;;9.70;5.93;;;14.90;99.90;;;;;;5114654;27;20566;-79
2023/08/14 00:21:09;;;;;;;7.32;5.97;;;14.90;99.90;;;;;;5096802;28;20071;-79
2023/08/14 00:23:35;;;;;;;11.63;6.35;;;14.90;99.90;;;;;;5125183;27;20067;-79
2023/08/14 00:26:00;;;;;;;8.25;6.07;;;14.90;99.90;;;;;;5107602;28;20061;-79
2023/08/14 00:28:26;;;;;;;9.40;6.28;;;14.90;99.90;;;;;;5090826;28;20035;-79
2023/08/14 00:30:51;;;;;;;11.77;5.68;;;14.90;99.90;;;;;;5109195;28;20040;-79
2023/08/14 00:33:17;;;;;;;8.48;5.65;;;14.90;99.90;;;;;;5107455;28;20147;-79
2023/08/14 00:35:43;;;;;;;9.02;5.88;;;14.90;99.90;;;;;;5107586;28;20032;-79
2023/08/14 00:38:08;;;;;;;6.55;5.30;;;14.80;99.90;;;;;;5106533;28;20373;-79
2023/08/14 00:40:34;;;;;;;10.88;6.13;;;14.80;99.90;;;;;;5110641;28;20099;-79
2023/08/14 00:42:59;;;;;;;8.32;6.30;;;14.80;99.90;;;;;;5128518;28;20076;-79
2023/08/14 00:45:25;;;;;;;7.97;6.38;;;14.80;99.90;;;;;;5111229;28;20031;-80
2023/08/14 00:47:51;;;;;;;9.43;6.45;;;14.80;99.90;;;;;;5111057;28;20031;-79
2023/08/14 00:50:18;;;;;;;10.57;6.68;;;14.70;99.90;;;;;;5123047;28;20036;-79
2023/08/14 00:52:46;;;;;;;8.80;6.15;;;14.70;99.90;;;;;;5108723;28;20047;-79
2023/08/14 00:55:18;;;;;;;6.55;5.95;;;14.70;99.90;;;;;;5106978;28;20032;-79
2023/08/14 00:57:44;;;;;;;7.10;6.40;;;14.70;99.90;;;;;;5108717;28;20036;-79
2023/08/14 01:00:11;;;;;;;7.97;6.50;;;14.60;99.90;;;;;;5107410;28;20039;-79
2023/08/14 01:02:42;;;;;;;7.82;6.38;;;14.60;99.90;;;;;;5090452;28;20035;-79
2023/08/14 01:05:07;;;;;;;8.52;6.32;;;14.60;99.90;;;;;;5107524;28;20031;-79
2023/08/14 01:07:33;;;;;;;9.05;6.13;;;14.60;99.90;;;;;;5090553;28;20088;-79
2023/08/14 01:10:02;;;;;;;8.77;6.57;;;14.50;99.90;;;;;;5108065;28;20036;-79
2023/08/14 01:12:45;;;;;;;9.90;7.20;;;14.60;99.90;;;;;;5090458;28;20040;-79
2023/08/14 01:15:16;;;;;;;12.55;8.35;;;14.50;99.90;;;;;;5090325;28;20520;-80
2023/08/14 01:17:50;;;;;;;12.70;8.23;;;14.50;99.90;;;;;;5090680;28;20035;-80
2023/08/14 01:20:18;;;;;;;11.45;7.07;;;14.50;99.90;;;;;;5090213;28;20455;-79
2023/08/14 01:22:46;;;;;;;10.82;7.00;;;14.50;99.90;;;;;;5090668;28;20512;-80
2023/08/14 01:25:30;;;;;;;8.23;7.20;;;14.40;99.90;;;;;;5124714;28;20039;-79
2023/08/14 01:27:56;;;;;;;10.43;7.30;;;14.40;99.90;;;;;;5110430;28;20046;-79
2023/08/14 01:30:22;;;;;;;10.93;6.82;;;14.40;99.90;;;;;;5129059;27;20499;-79
2023/08/14 01:32:50;;;;;;;9.75;7.15;;;14.40;99.90;;;;;;5129330;27;20039;-79
2023/08/14 01:35:21;;;;;;;11.13;8.10;;;14.40;99.90;;;;;;5110523;28;20051;-79
2023/08/14 01:38:11;;;;;;;13.05;7.03;;;14.30;99.90;;;;;;5127687;28;20404;-80
2023/08/14 01:40:40;;;;;;;9.57;7.78;;;14.30;99.90;;;;;;5089420;28;20031;-79
2023/08/14 01:43:18;;;;;;;11.52;8.13;;;14.40;99.90;;;;;;5108756;28;20079;-79
2023/08/14 01:45:44;;;;;;;11.73;7.88;;;14.30;99.90;;;;;;5111315;27;20423;-79
2023/08/14 01:48:13;;;;;;;11.32;8.30;;;14.40;99.90;;;;;;5128112;27;20455;-79
2023/08/14 01:50:40;;;;;;;13.43;8.35;;;14.20;99.90;;;;;;5110652;28;20120;-79
2023/08/14 01:53:06;;;;;;;12.85;7.20;;;14.10;99.90;;;;;;5093377;28;20039;-80
2023/08/14 01:55:32;;;;;;;9.07;7.68;;;14.30;99.90;;;;;;5110552;28;20048;-79
2023/08/14 01:57:58;;;;;;;11.90;8.20;;;14.20;99.90;;;;;;5110470;28;20096;-79
2023/08/14 02:00:24;;;;;;;13.65;8.93;;;14.30;99.90;;;;;;5097200;27;20038;-79
2023/08/14 02:02:50;;;;;;;16.98;9.30;;;14.20;99.90;;;;;;5131233;27;20745;-80
2023/08/14 02:05:15;;;;;;;11.02;7.97;;;14.20;99.90;;;;;;5132155;27;20059;-80
2023/08/14 02:07:42;;;;;;;11.30;8.57;;;14.30;99.90;;;;;;5131912;27;20090;-79
2023/08/14 02:10:08;;;;;;;15.27;8.13;;;14.20;99.90;;;;;;5114161;27;20035;-79
2023/08/14 02:12:34;;;;;;;13.18;8.27;;;14.20;99.90;;;;;;5130958;27;20362;-80
2023/08/14 02:15:00;;;;;;;12.38;8.55;;;14.20;99.90;;;;;;5113540;27;20027;-79
2023/08/14 02:17:27;;;;;;;10.77;9.02;;;14.20;99.90;;;;;;5132460;27;20384;-79
2023/08/14 02:19:54;;;;;;;14.90;9.38;;;14.20;99.90;;;;;;5131042;27;20447;-80
2023/08/14 02:22:19;;;;;;;14.07;8.50;;;14.20;99.90;;;;;;5130242;27;20066;-80
2023/08/14 02:24:45;;;;;;;12.32;9.68;;;14.20;99.90;;;;;;5130930;27;20465;-80
2023/08/14 02:27:10;;;;;;;13.10;10.32;;;14.20;99.90;;;;;;5113980;27;20442;-79
2023/08/14 02:29:36;;;;;;;13.07;8.57;;;14.20;99.90;;;;;;5128716;27;20095;-79
2023/08/14 02:32:03;;;;;;;12.77;9.45;;;14.20;99.90;;;;;;5092811;28;20370;-79
2023/08/14 02:34:32;;;;;;;17.50;11.27;;;14.20;99.90;;;;;;5127449;27;20670;-79
2023/08/14 02:36:57;;;;;;;15.35;11.60;;;14.20;99.90;;;;;;5109455;28;20089;-79
2023/08/14 02:39:23;;;;;;;17.10;11.05;;;14.30;99.90;;;;;;5127031;27;20071;-79
2023/08/14 02:41:49;;;;;;;17.73;11.30;;;14.20;99.90;;;;;;5109607;28;20043;-79
2023/08/14 02:44:14;;;;;;;19.85;13.73;;;14.20;99.90;;;;;;5109782;27;20027;-79
2023/08/14 02:46:40;;;;;;;15.07;11.75;;;14.20;99.90;;;;;;5110103;28;20173;-79
2023/08/14 02:49:05;;;;;;;14.68;11.07;;;14.30;99.90;;;;;;5127245;27;20497;-79
2023/08/14 02:51:31;;;;;;;11.98;9.40;;;14.20;99.90;;;;;;5108877;28;20120;-79
2023/08/14 02:53:57;;;;;;;12.73;11.40;;;14.20;99.90;;;;;;5111010;28;20165;-79
2023/08/14 02:56:22;;;;;;;16.65;12.65;;;14.20;99.90;;;;;;5126379;27;20178;-79
2023/08/14 02:58:48;;;;;;;14.68;10.93;;;14.40;99.90;;;;;;5109469;28;20036;-80
2023/08/14 03:01:13;;;;;;;13.38;11.02;;;14.20;99.90;;;;;;5128317;27;20512;-79
2023/08/14 03:03:39;;;;;;;13.88;11.73;;;14.10;99.90;;;;;;5130572;27;20035;-80
2023/08/14 03:06:05;;;;;;;13.45;11.50;;;14.10;99.90;;;;;;5112135;27;20081;-80
2023/08/14 03:08:30;;;;;;;16.40;13.25;;;14.10;99.90;;;;;;5129622;27;20035;-80
2023/08/14 03:10:56;;;;;;;14.32;11.30;;;14.30;99.90;;;;;;5112354;27;20104;-79
2023/08/14 03:13:22;;;;;;;17.05;12.40;;;14.20;99.90;;;;;;5129583;27;20074;-79
2023/08/14 03:15:47;;;;;;;17.70;12.25;;;14.10;99.90;;;;;;5129403;27;20361;-80
2023/08/14 03:18:13;;;;;;;17.00;11.77;;;14.10;99.90;;;;;;5129056;27;20043;-79
2023/08/14 03:20:39;;;;;;;22.52;11.88;;;14.10;99.90;;;;;;5128772;27;20096;-80
2023/08/14 03:23:04;;;;;;;18.55;12.35;;;14.10;99.90;;;;;;5129262;27;20039;-80
2023/08/14 03:25:30;;;;;;;17.75;10.75;;;14.10;99.90;;;;;;5130951;27;20080;-79
2023/08/14 03:27:55;;;;;;;15.40;10.75;;;14.10;99.90;;;;;;5130573;27;20049;-80
2023/08/14 03:30:21;;;;;;;16.23;11.75;;;14.10;99.90;;;;;;5118237;27;20039;-80
2023/08/14 03:32:47;;;;;;;17.27;12.00;;;14.00;99.90;;;;;;5109995;28;20031;-80
2023/08/14 03:35:12;;;;;;;16.55;13.23;;;14.00;99.90;;;;;;5125490;27;20092;-80
2023/08/14 03:37:38;;;;;;;16.98;12.68;;;14.00;99.90;;;;;;5125867;27;20031;-80
2023/08/14 03:40:04;;;;;;;17.55;13.30;;;13.90;99.90;;;;;;5125997;27;20149;-80
2023/08/14 03:42:30;;;;;;;21.77;13.02;;;14.00;99.90;;;;;;5109779;28;20047;-79
2023/08/14 03:44:55;;;;;;;17.30;13.20;;;13.90;99.90;;;;;;5132721;27;20039;-79
2023/08/14 03:47:21;;;;;;;16.55;12.68;;;13.90;99.90;;;;;;5108588;28;20031;-79
2023/08/14 03:49:47;;;;;;;14.70;11.55;;;13.90;99.90;;;;;;5108097;28;20058;-81
2023/08/14 03:52:13;;;;;;;15.63;12.73;;;14.00;99.90;;;;;;5143086;27;20364;-79
2023/08/14 03:54:38;;;;;;;24.08;13.55;;;13.90;99.90;;;;;;5091593;28;20036;-79
2023/08/14 03:57:04;;;;;;;20.60;12.55;;;13.90;99.90;;;;;;5142758;27;20497;-80
2023/08/14 03:59:29;;;;;;;19.83;14.55;;;13.90;99.90;;;;;;5136916;27;20044;-80
2023/08/14 04:01:55;;;;;;;17.58;12.15;;;13.90;99.90;;;;;;5090946;28;20126;-80
2023/08/14 04:04:21;;;;;;;17.95;13.05;;;13.90;99.90;;;;;;5091207;28;20389;-80
2023/08/14 04:06:47;;;;;;;19.75;13.45;;;13.80;99.90;;;;;;5090523;28;20035;-79
2023/08/14 04:09:13;;;;;;;14.20;11.55;;;13.80;99.90;;;;;;5108219;28;20043;-79
2023/08/14 04:11:39;;;;;;;16.35;13.27;;;13.80;99.90;;;;;;5091094;28;20063;-80
2023/08/14 04:14:05;;;;;;;21.05;13.60;;;13.80;99.90;;;;;;5108214;28;20031;-80
2023/08/14 04:16:41;;;;;;;16.35;13.00;;;14.00;99.90;;;;;;5109249;28;20047;-80
2023/08/14 04:19:15;;;;;;;15.85;13.50;;;13.70;99.90;;;;;;5107656;28;20071;-79
2023/08/14 04:21:42;;;;;;;19.50;13.95;;;13.80;99.90;;;;;;5111197;27;20038;-80
2023/08/14 04:24:08;;;;;;;20.15;13.65;;;13.80;99.90;;;;;;5129729;27;20403;-80
2023/08/14 04:26:34;;;;;;;22.88;15.25;;;13.80;99.90;;;;;;5126239;27;20494;-79
2023/08/14 04:29:00;;;;;;;20.20;13.13;;;13.80;99.90;;;;;;5131900;27;20031;-80
2023/08/14 04:31:25;;;;;;;19.38;14.95;;;13.80;99.90;;;;;;5132083;27;20571;-80
2023/08/14 04:33:51;;;;;;;16.15;13.27;;;13.80;99.90;;;;;;5114429;27;20030;-79
2023/08/14 04:36:16;;;;;;;19.10;14.35;;;13.80;99.90;;;;;;5114744;27;20606;-79
2023/08/14 04:38:42;;;;;;;16.92;14.02;;;13.90;99.90;;;;;;5131793;27;20460;-79
2023/08/14 04:41:08;;;;;;;17.73;14.02;;;14.00;99.90;;;;;;5126628;28;20035;-80
2023/08/14 04:43:33;;;;;;;19.75;14.68;;;14.00;99.90;;;;;;5129482;28;20035;-80
2023/08/14 04:46:07;;;;;;;19.80;13.80;;;14.00;99.90;;;;;;5111169;28;20516;-80
2023/08/14 04:48:33;;;;;;;23.45;15.82;;;14.10;99.90;;;;;;5129427;28;20039;-79
2023/08/14 04:50:58;;;;;;;23.52;14.40;;;14.20;99.90;;;;;;5111104;28;20469;-80
2023/08/14 04:53:24;;;;;;;19.48;14.43;;;14.20;99.90;;;;;;5129381;28;20118;-80
2023/08/14 04:55:51;;;;;;;22.50;15.82;;;14.40;99.90;;;;;;5111312;28;20039;-80
2023/08/14 04:58:16;;;;;;;17.45;15.23;;;14.40;99.90;;;;;;5093995;28;20039;-80
2023/08/14 05:00:42;;;;;;;19.45;14.48;;;14.50;99.90;;;;;;5093889;28;20160;-80
2023/08/14 05:03:08;;;;;;;19.08;14.82;;;14.60;99.90;;;;;;5093548;28;20396;-80
2023/08/14 05:05:33;;;;;;;18.15;13.18;;;14.70;99.90;;;;;;5129270;28;20038;-80
2023/08/14 05:07:59;;;;;;;16.55;11.90;;;14.80;99.90;;;;;;5110942;28;20595;-79
2023/08/14 05:10:25;;;;;;;18.10;12.63;;;14.90;99.90;;;;;;5093965;28;20084;-79
2023/08/14 05:12:50;;;;;;;23.20;13.73;;;15.10;99.90;;;;;;5129535;28;20110;-80
2023/08/14 05:15:16;;;;;;;16.33;12.05;;;15.20;99.90;;;;;;5129453;28;20091;-80
2023/08/14 05:17:42;;;;;;;14.43;12.60;;;15.20;99.90;;;;;;5110582;28;20133;-80
2023/08/14 05:20:09;;;;;;;25.60;15.30;;;15.30;99.90;;;;;;5130290;27;20055;-80
2023/08/14 05:22:34;;;;;;;17.65;12.82;;;15.40;99.90;;;;;;5114609;27;20071;-80
2023/08/14 05:25:00;;;;;;;17.98;13.90;;;15.40;99.90;;;;;;5143783;27;20110;-80
2023/08/14 05:27:26;;;;;;;19.85;13.13;;;15.50;99.90;;;;;;5156020;27;20034;-80
2023/08/14 05:29:51;;;;;;;18.30;11.38;;;15.50;99.90;;;;;;5138512;27;20044;-80
2023/08/14 05:32:17;;;;;;;16.48;14.02;;;15.60;99.90;;;;;;5155326;27;20044;-80
2023/08/14 05:34:43;;;;;;;19.45;13.30;;;15.60;99.90;;;;;;5138513;27;20320;-80
2023/08/14 05:37:08;;;;;;;18.40;13.77;;;15.70;99.90;;;;;;5155786;27;20065;-80
2023/08/14 05:39:34;;;;;;;16.15;12.20;;;15.90;99.90;;;;;;5151088;27;20034;-80
2023/08/14 05:41:59;;;;;;;15.15;12.35;;;16.00;99.90;;;;;;5117610;27;20391;-80
2023/08/14 05:44:25;;;;;;;16.55;11.38;;;16.20;99.90;;;;;;5134806;27;20117;-79
2023/08/14 05:46:51;;;;;;;14.50;11.18;;;16.30;99.90;;;;;;5117085;27;20041;-79
2023/08/14 05:49:16;;;;;;;13.77;9.88;;;16.50;99.90;;;;;;5134877;27;20371;-80
2023/08/14 05:51:43;;;;;;;16.20;11.73;;;16.60;99.90;;;;;;5134536;27;20035;-80
2023/08/14 05:54:08;;;;;;;21.60;11.52;;;16.90;99.90;;;;;;5120181;27;20046;-80
2023/08/14 05:56:34;;;;;;;15.27;10.77;;;17.00;99.90;;;;;;5155080;27;20121;-80
2023/08/14 05:59:00;;;;;;;15.90;11.15;;;17.20;99.90;;;;;;5155136;27;20046;-80
2023/08/14 06:01:26;;;;;;;14.50;9.27;;;17.40;99.90;;;;;;5154459;27;20034;-80
2023/08/14 06:03:54;;;;;;;15.32;10.45;;;17.50;99.90;;;;;;5137558;27;20479;-80
2023/08/14 06:06:19;;;;;;;13.50;9.60;;;17.70;99.90;;;;;;5155088;27;20049;-80
2023/08/14 06:08:45;;;;;;;14.60;10.77;;;18.00;99.90;;;;;;5137590;27;20030;-80
2023/08/14 06:11:11;;;;;;;11.13;9.90;;;18.10;99.90;;;;;;5137747;27;20080;-79
2023/08/14 06:13:36;;;;;;;13.30;9.70;;;18.20;99.90;;;;;;5137788;27;20060;-80
2023/08/14 06:16:02;;;;;;;11.10;9.65;;;18.30;99.90;;;;;;5154630;27;20042;-80
2023/08/14 06:18:28;;;;;;;14.52;10.15;;;18.50;99.90;;;;;;5155358;27;20038;-80
2023/08/14 06:20:54;;;;;;;12.68;8.85;;;18.60;99.90;;;;;;5149335;27;20500;-80
2023/08/14 06:23:20;;;;;;;15.90;9.63;;;18.80;99.90;;;;;;5133927;27;20392;-80
2023/08/14 06:25:45;;;;;;;10.13;8.55;;;18.70;99.90;;;;;;5133855;27;20034;-80
2023/08/14 06:28:11;;;;;;;12.88;8.80;;;18.70;99.90;;;;;;5152374;27;20045;-80
2023/08/14 06:30:37;;;;;;;11.20;9.30;;;18.70;99.90;;;;;;5150234;27;20050;-80
2023/08/14 06:33:03;;;;;;;12.43;9.20;;;18.60;99.90;;;;;;5152363;27;20463;-80
2023/08/14 06:35:28;;;;;;;14.23;9.38;;;18.60;99.90;;;;;;5151224;27;20132;-80
2023/08/14 06:37:54;;;;;;;16.02;8.95;;;18.60;99.90;;;;;;5147414;27;20087;-80
2023/08/14 06:40:20;;;;;;;14.18;9.13;;;18.60;99.90;;;;;;5130350;27;20434;-80
2023/08/14 06:42:45;;;;;;;12.90;8.73;;;18.60;99.90;;;;;;5113236;27;20117;-80
2023/08/14 06:45:11;;;;;;;10.05;8.88;;;18.60;99.90;;;;;;5129571;27;20481;-80
2023/08/14 06:47:44;;;;;;;12.98;7.95;;;18.60;99.90;;;;;;5130347;27;20035;-80
2023/08/14 06:50:12;;;;;;;11.20;8.38;;;18.60;99.90;;;;;;5130205;27;20070;-80
2023/08/14 06:52:38;;;;;;;14.60;9.20;;;18.60;99.90;;;;;;5112961;27;20115;-80
2023/08/14 06:55:04;;;;;;;9.77;8.20;;;18.60;99.90;;;;;;5135432;27;20039;-80
2023/08/14 06:57:29;;;;;;;10.82;8.45;;;18.60;99.90;;;;;;5150061;27;20034;-80
2023/08/14 06:59:55;;;;;;;11.65;8.73;;;18.70;99.90;;;;;;5152120;27;20117;-79
2023/08/14 07:02:21;;;;;;;10.55;7.95;;;18.70;99.90;;;;;;5151909;27;20107;-79
2023/08/14 07:04:47;;;;;;;14.35;8.15;;;18.80;99.90;;;;;;5151920;27;20031;-80
2023/08/14 07:07:12;;;;;;;12.23;8.02;;;18.90;99.90;;;;;;5150457;27;20037;-80
2023/08/14 07:09:38;;;;;;;10.07;8.25;;;18.90;99.90;;;;;;5133017;27;20043;-80
2023/08/14 07:12:04;;;;;;;11.77;7.72;;;18.90;99.90;;;;;;5130704;27;20495;-80
2023/08/14 07:14:31;;;;;;;11.05;7.55;;;18.90;99.90;;;;;;5129837;27;20043;-80
2023/08/14 07:16:57;;;;;;;13.50;8.82;;;19.00;99.90;;;;;;5129552;27;20126;-80
2023/08/14 07:19:23;;;;;;;12.48;7.55;;;19.20;99.90;;;;;;5132329;27;20118;-80
2023/08/14 07:21:48;;;;;;;12.10;8.50;;;19.40;99.90;;;;;;5132906;27;20091;-79
2023/08/14 07:24:14;;;;;;;11.05;8.45;;;19.70;99.90;;;;;;5148386;27;20090;-80
2023/08/14 07:26:40;;;;;;;9.68;7.47;;;20.00;99.90;;;;;;5171691;27;20038;-80
2023/08/14 07:29:06;;;;;;;11.27;8.00;;;20.40;99.90;;;;;;5153678;27;20038;-80
2023/08/14 07:31:32;;;;;;;11.98;8.52;;;21.10;99.90;;;;;;5153479;27;20370;-79
2023/08/14 07:33:58;;;;;;;12.00;7.75;;;22.00;99.90;;;;;;5153542;27;20030;-80
2023/08/14 07:36:23;;;;;;;8.65;6.45;;;23.00;99.90;;;;;;5153368;27;20095;-80
2023/08/14 07:38:49;;;;;;;9.95;7.70;;;24.00;99.90;;;;;;5161892;27;20400;-80
2023/08/14 07:41:14;;;;;;;8.88;7.57;;;24.80;99.90;;;;;;5150442;27;20034;-80
2023/08/14 07:43:40;;;;;;;6.60;5.60;;;25.70;99.90;;;;;;5114871;27;20077;-80
2023/08/14 07:46:07;;;;;;;9.57;8.20;;;26.30;99.90;;;;;;5151151;27;20501;-81
2023/08/14 07:48:33;;;;;;;9.90;6.68;;;26.30;99.90;;;;;;5132371;27;20054;-81
2023/08/14 07:50:59;;;;;;;10.02;6.85;;;26.20;99.90;;;;;;5115473;27;20050;-80
2023/08/14 07:53:24;;;;;;;12.20;6.47;;;25.60;99.90;;;;;;5115099;27;20050;-80
2023/08/14 07:55:50;;;;;;;8.27;7.30;;;25.10;99.90;;;;;;5115427;27;20031;-80
2023/08/14 07:58:18;;;;;;;9.80;8.38;;;24.80;99.90;;;;;;5132394;27;20065;-80
2023/08/14 08:00:44;;;;;;;7.72;6.95;;;24.60;99.90;;;;;;5132387;27;20070;-80
2023/08/14 08:03:10;;;;;;;8.27;7.55;;;24.20;99.90;;;;;;5132031;27;20042;-80
2023/08/14 08:05:36;;;;;;;8.88;7.97;;;23.90;99.90;;;;;;5114991;27;20031;-80
2023/08/14 08:08:01;;;;;;;13.15;9.50;;;23.70;99.90;;;;;;5135063;27;20038;-80
2023/08/14 08:10:28;;;;;;;9.68;7.85;;;23.60;99.90;;;;;;5152023;27;20130;-80
2023/08/14 08:12:53;;;;;;;12.23;7.13;;;23.50;99.90;;;;;;5152653;27;20090;-80
2023/08/14 08:15:19;;;;;;;8.48;7.28;;;23.40;99.90;;;;;;5152753;27;20042;-80
2023/08/14 08:17:45;;;;;;;8.73;7.93;;;23.50;99.90;;;;;;5152580;27;20042;-80
2023/08/14 08:20:11;;;;;;;8.52;6.93;;;23.50;99.90;;;;;;5152530;27;20141;-80
2023/08/14 08:22:37;;;;;;;9.20;8.35;;;23.40;99.90;;;;;;5152709;27;20488;-80
2023/08/14 08:25:03;;;;;;;9.68;8.73;;;23.50;99.90;;;;;;5134805;27;20038;-79
2023/08/14 08:27:29;;;;;;;8.85;7.32;;;23.60;99.90;;;;;;5152832;27;20073;-80
2023/08/14 08:29:55;;;;;;;7.10;6.47;;;23.80;99.90;;;;;;5152620;27;20195;-80
2023/08/14 08:32:20;;;;;;;9.55;7.85;;;24.10;99.90;;;;;;5152447;27;20484;-80
2023/08/14 08:34:46;;;;;;;8.52;7.72;;;24.60;99.90;;;;;;5135620;27;20485;-80
2023/08/14 08:37:11;;;;;;;11.23;7.15;;;25.00;99.90;;;;;;5135157;27;20038;-80
2023/08/14 08:39:37;;;;;;;7.78;6.97;;;25.70;99.90;;;;;;5135072;27;20069;-80
2023/08/14 08:42:06;;;;;;;10.02;9.07;;;26.10;99.90;;;;;;5114589;27;20222;-80
2023/08/14 08:44:33;;;;;;;8.95;7.38;;;26.30;99.90;;;;;;5131653;27;20034;-80
2023/08/14 08:47:03;;;;;;;7.55;6.85;;;26.30;99.90;;;;;;5131586;27;20045;-80
2023/08/14 08:49:29;;;;;;;10.48;8.90;;;26.40;99.90;;;;;;5131730;27;20039;-80
2023/08/14 08:51:55;;;;;;;13.65;12.48;;;26.50;99.90;;;;;;5131568;27;20039;-80
2023/08/14 08:54:20;;;;;;;24.77;22.80;;;26.40;99.90;;;;;;5134191;27;20035;-81
2023/08/14 08:56:47;;;;;;;22.80;20.95;;;26.40;99.90;;;;;;5154631;27;20038;-81
2023/08/14 08:59:14;;;;;;;68.53;62.47;;;26.00;99.90;;;;;;5118482;27;20191;-80
2023/08/14 09:01:41;;;;;;;47.83;43.60;;;25.80;99.90;;;;;;5135533;27;20034;-80
2023/08/14 09:04:07;;;;;;;87.68;79.80;;;25.60;99.90;;;;;;5135716;27;20553;-80
2023/08/14 09:06:34;;;;;;;28.50;25.95;;;25.20;99.90;;;;;;5118665;27;20122;-80
2023/08/14 09:09:00;;;;;;;23.75;21.67;;;25.00;99.90;;;;;;5150278;27;20042;-80
2023/08/14 09:11:26;;;;;;;31.10;28.55;;;24.80;99.90;;;;;;5175070;27;20121;-80
2023/08/14 09:13:52;;;;;;;18.95;17.38;;;24.60;99.90;;;;;;5175336;27;20050;-80
2023/08/14 09:16:18;;;;;;;20.58;19.00;;;24.40;99.90;;;;;;5156033;27;20460;-80
2023/08/14 09:18:44;;;;;;;11.50;10.30;;;24.70;99.90;;;;;;5156359;27;20041;-80
2023/08/14 09:21:11;;;;;;;13.98;12.77;;;25.50;99.90;;;;;;5155799;27;20141;-80
2023/08/14 09:23:41;;;;;;;17.70;16.15;;;26.40;99.90;;;;;;5174007;27;20046;-81
2023/08/14 09:26:08;;;;;;;15.60;14.32;;;27.20;99.90;;;;;;5155786;27;20030;-80
2023/08/14 09:28:35;;;;;;;87.70;81.10;;;27.90;99.90;;;;;;5174675;27;20034;-81
2023/08/14 09:31:11;;;;;;;193.55;179.45;;;28.40;99.90;;;;;;5138616;27;20038;-80
2023/08/14 09:33:42;;;;;;;398.83;359.13;;;28.70;99.90;;;;;;5174703;27;20215;-80
2023/08/14 09:36:08;;;;;;;528.33;476.70;;;28.80;99.90;;;;;;5156088;27;20396;-80
2023/08/14 09:38:34;;;;;;;710.05;640.80;;;29.00;99.90;;;;;;5172253;27;20042;-80
2023/08/14 09:41:00;;;;;;;1030.95;763.45;;;29.20;99.90;;;;;;5155376;27;20565;-80
2023/08/14 09:43:28;;;;;;;688.08;626.85;;;29.10;99.90;;;;;;5173779;27;20034;-81
2023/08/14 09:45:56;;;;;;;1377.65;947.13;;;28.80;99.90;;;;;;5138260;27;20066;-80
2023/08/14 09:48:22;;;;;;;1166.50;861.42;;;28.30;99.90;;;;;;5155691;27;20505;-81
2023/08/14 09:50:49;;;;;;;825.03;708.30;;;27.60;99.90;;;;;;5155752;27;20038;-80
2023/08/14 09:53:15;;;;;;;1734.40;999.90;;;27.10;99.90;;;;;;5154929;27;20042;-80
2023/08/14 09:55:41;;;;;;;1082.75;863.47;;;26.80;99.90;;;;;;5155433;27;20049;-80
2023/08/14 09:58:07;;;;;;;1219.38;936.22;;;26.60;99.90;;;;;;5136150;27;20441;-81
2023/08/14 10:00:33;;;;;;;1071.53;924.50;;;26.50;99.90;;;;;;5155080;27;20034;-81
2023/08/14 10:03:00;;;;;;;1381.72;999.90;;;26.40;99.90;;;;;;5155240;27;20034;-80
2023/08/14 10:05:27;;;;;;;1999.90;999.90;;;26.50;99.90;;;;;;5172996;27;20034;-80
2023/08/14 10:07:54;;;;;;;1999.90;866.88;;;26.60;99.90;;;;;;5154828;27;20070;-81
2023/08/14 10:10:21;;;;;;;1999.90;999.90;;;26.60;99.90;;;;;;5154872;27;20111;-80
2023/08/14 10:12:58;;;;;;;1999.90;999.90;;;26.60;99.90;;;;;;5155214;27;20046;-81
2023/08/14 10:15:31;;;;;;;1999.90;999.90;;;26.60;99.90;;;;;;5154232;27;20086;-81
2023/08/14 10:18:19;;;;;;;1999.90;999.90;;;26.50;99.90;;;;;;5155014;27;20142;-80
2023/08/14 10:20:47;;;;;;;1999.90;999.90;;;26.70;99.90;;;;;;5154101;27;20556;-81
2023/08/14 10:23:13;;;;;;;1999.90;999.90;;;27.00;99.90;;;;;;5137730;27;20564;-81
2023/08/14 10:25:39;;;;;;;1999.90;998.13;;;27.00;99.90;;;;;;5155107;27;20468;-80
2023/08/14 10:28:07;;;;;;;1999.90;999.90;;;27.00;99.90;;;;;;5158683;27;20043;-81
2023/08/14 10:30:34;;;;;;;1999.90;999.90;;;27.00;99.90;;;;;;5133980;27;20042;-81
2023/08/14 10:33:02;;;;;;;1999.90;999.90;;;26.70;99.90;;;;;;5116603;27;20034;-80
2023/08/14 10:35:28;;;;;;;1692.85;352.20;;;26.60;99.90;;;;;;5116253;27;20094;-81
2023/08/14 10:37:54;;;;;;;1751.25;399.35;;;26.50;99.90;;;;;;5116622;27;20030;-80
2023/08/14 10:40:24;;;;;;;1999.90;728.83;;;26.30;99.90;;;;;;5133565;27;20476;-81
2023/08/14 10:42:58;;;;;;;1999.90;999.90;;;26.40;99.90;;;;;;5134000;27;20039;-80
2023/08/14 10:45:27;;;;;;;1999.90;828.97;;;26.40;99.90;;;;;;5116931;27;20047;-81
2023/08/14 10:47:59;;;;;;;1892.13;474.38;;;26.50;99.90;;;;;;5116704;27;20031;-81
2023/08/14 10:50:28;;;;;;;1999.90;999.90;;;26.50;99.90;;;;;;5116339;27;20038;-81
2023/08/14 10:52:55;;;;;;;1999.90;711.47;;;26.50;99.90;;;;;;5133829;27;20521;-81
2023/08/14 10:55:25;;;;;;;1999.90;989.40;;;26.60;99.90;;;;;;5116857;27;20066;-80
2023/08/14 10:57:54;;;;;;;1583.65;292.35;;;26.70;99.90;;;;;;5134965;27;20030;-81
2023/08/14 11:00:26;;;;;;;1999.90;999.90;;;26.80;99.90;;;;;;5116299;27;20035;-81
2023/08/14 11:03:11;;;;;;;1999.90;999.90;;;26.70;99.90;;;;;;5133486;27;20077;-81
2023/08/14 11:05:38;;;;;;;1754.25;385.95;;;26.70;99.90;;;;;;5115867;27;20034;-80
2023/08/14 11:08:10;;;;;;;1999.90;999.90;;;26.60;99.90;;;;;;5116290;27;20031;-80
2023/08/14 11:10:36;;;;;;;1999.90;999.90;;;26.60;99.90;;;;;;5133316;27;20044;-81
2023/08/14 11:13:06;;;;;;;1999.90;395.73;;;26.60;99.90;;;;;;5095681;27;20136;-80
2023/08/14 11:15:33;;;;;;;1999.90;903.05;;;26.60;99.90;;;;;;5112632;27;20064;-81
2023/08/14 11:18:00;;;;;;;1999.90;999.90;;;26.70;99.90;;;;;;5112849;27;20096;-81
2023/08/14 11:20:29;;;;;;;1999.90;999.90;;;26.60;99.90;;;;;;5111847;27;20547;-81
2023/08/14 11:22:55;;;;;;;1162.97;162.52;;;26.60;99.90;;;;;;5095360;27;20084;-80
2023/08/14 11:25:22;;;;;;;1999.90;999.90;;;26.30;99.90;;;;;;5131023;27;20027;-81
2023/08/14 11:27:50;;;;;;;1990.20;497.63;;;26.00;99.90;;;;;;5133741;27;20118;-81
2023/08/14 11:30:16;;;;;;;1999.90;999.90;;;25.90;99.90;;;;;;5133065;27;20496;-81
2023/08/14 11:32:42;;;;;;;1999.90;999.90;;;26.00;99.90;;;;;;5132830;27;20043;-81
2023/08/14 11:35:09;;;;;;;1756.47;386.42;;;26.20;99.90;;;;;;5151013;27;20054;-81
2023/08/14 11:37:34;;;;;;;1999.90;999.90;;;26.30;99.90;;;;;;5132735;27;20042;-81
2023/08/14 11:40:04;;;;;;;1999.90;999.90;;;26.30;99.90;;;;;;5132856;27;20030;-80
2023/08/14 11:42:31;;;;;;;1999.90;822.65;;;26.10;99.90;;;;;;5152618;27;20102;-81
2023/08/14 11:44:57;;;;;;;1999.90;999.90;;;26.10;99.90;;;;;;5153203;27;20038;-81
2023/08/14 11:47:23;;;;;;;1999.90;889.88;;;26.30;99.90;;;;;;5135532;27;20078;-80
2023/08/14 11:49:50;;;;;;;1999.90;970.75;;;26.40;99.90;;;;;;5135887;27;20090;-81
2023/08/14 11:52:16;;;;;;;1868.68;812.55;;;26.40;99.90;;;;;;5153271;27;20048;-81
2023/08/14 11:54:44;;;;;;;1999.90;999.90;;;26.30;99.90;;;;;;5135716;27;20121;-80
2023/08/14 11:57:13;;;;;;;1999.90;953.67;;;26.20;99.90;;;;;;5121579;27;20043;-81
2023/08/14 11:59:39;;;;;;;1999.90;999.90;;;26.00;99.90;;;;;;5132198;27;20080;-81
2023/08/14 12:02:05;;;;;;;1999.90;932.40;;;25.90;99.90;;;;;;5131790;27;20074;-80
2023/08/14 12:04:31;;;;;;;1999.90;999.90;;;25.80;99.90;;;;;;5132743;27;20089;-81
2023/08/14 12:06:57;;;;;;;1999.90;889.60;;;25.80;99.90;;;;;;5115115;27;20034;-80
2023/08/14 12:09:29;;;;;;;1999.90;627.30;;;25.90;99.90;;;;;;5132072;27;20039;-81
2023/08/14 12:11:54;;;;;;;1999.90;866.00;;;26.00;99.90;;;;;;5115092;27;20042;-81
2023/08/14 12:14:20;;;;;;;1999.90;628.22;;;26.10;99.90;;;;;;5168346;27;20111;-81
2023/08/14 12:16:46;;;;;;;1881.28;400.50;;;26.20;99.90;;;;;;5134952;27;20123;-80
2023/08/14 12:19:12;;;;;;;1999.90;999.90;;;26.20;99.90;;;;;;5171396;27;20109;-81
2023/08/14 12:21:39;;;;;;;1999.90;999.90;;;26.50;99.90;;;;;;5152248;27;20062;-80
2023/08/14 12:24:05;;;;;;;1999.90;999.90;;;26.50;99.90;;;;;;5171153;27;20399;-81